Time;durP1;ratioP1;P1;durP2;ratioP2;P2;SDS_P1;SDS_P2;PMS_P1;PMS_P2;Temp;Humidity;BMP_temperature;BMP_pressure;BME280_temperature;BME280_humidity;BME280_pressure;Samples;Min_cycle;Max_cycle;Signal;HPM_P1;HPM_P2
2020/12/25 00:02:11;;;;;;;21.48;13.43;;;10.10;93.60;;;;;;6277558;22;20000;-77
2020/12/25 00:04:38;;;;;;;21.55;13.15;;;9.90;94.00;;;;;;6278502;22;20002;-76
2020/12/25 00:07:06;;;;;;;24.70;16.20;;;9.70;94.70;;;;;;6280163;22;19996;-77
2020/12/25 00:09:33;;;;;;;22.05;13.52;;;9.60;94.80;;;;;;6279428;22;20000;-78
2020/12/25 00:12:00;;;;;;;23.75;14.98;;;9.50;94.90;;;;;;6286143;22;20000;-82
2020/12/25 00:14:27;;;;;;;21.17;14.82;;;9.40;95.20;;;;;;6254629;22;20435;-77
2020/12/25 00:16:54;;;;;;;26.05;16.27;;;9.40;95.00;;;;;;6289454;22;19999;-80
2020/12/25 00:19:21;;;;;;;21.42;13.38;;;9.40;95.10;;;;;;6285348;22;20000;-82
2020/12/25 00:21:47;;;;;;;22.67;13.68;;;9.40;95.10;;;;;;6279498;22;20007;-80
2020/12/25 00:24:14;;;;;;;22.40;13.55;;;9.60;94.80;;;;;;6275229;22;20030;-79
2020/12/25 00:26:41;;;;;;;22.90;12.90;;;9.50;94.20;;;;;;6278550;22;19999;-80
2020/12/25 00:29:08;;;;;;;24.00;13.80;;;9.40;94.00;;;;;;6275696;22;20007;-79
2020/12/25 00:31:40;;;;;;;22.30;12.45;;;9.50;94.60;;;;;;6281685;22;20000;-79
2020/12/25 00:34:10;;;;;;;24.95;14.18;;;9.30;94.50;;;;;;6282964;22;19992;-77
2020/12/25 00:36:40;;;;;;;24.33;14.82;;;9.30;94.60;;;;;;6281501;22;20007;-76
2020/12/25 00:39:10;;;;;;;20.58;12.85;;;9.20;94.40;;;;;;6278021;22;20007;-78
2020/12/25 00:41:50;;;;;;;20.55;13.10;;;9.10;94.00;;;;;;6278408;22;20006;-76
2020/12/25 00:44:19;;;;;;;22.35;12.48;;;9.10;93.90;;;;;;6277202;22;20015;-75
2020/12/25 00:46:50;;;;;;;21.08;12.82;;;9.10;93.90;;;;;;6277163;22;20004;-75
2020/12/25 00:49:17;;;;;;;26.45;14.75;;;9.10;93.60;;;;;;6248073;22;20010;-73
2020/12/25 00:51:47;;;;;;;21.08;13.25;;;9.10;93.60;;;;;;6275809;22;20007;-72
2020/12/25 00:54:14;;;;;;;25.25;15.80;;;9.10;93.40;;;;;;6274337;22;20010;-75
2020/12/25 00:56:41;;;;;;;22.20;13.75;;;9.10;93.60;;;;;;6274125;22;20007;-74
2020/12/25 00:59:08;;;;;;;26.52;13.88;;;9.20;93.60;;;;;;6274362;22;20452;-74
2020/12/25 01:01:37;;;;;;;26.05;15.40;;;9.20;93.40;;;;;;6274482;22;20007;-76
2020/12/25 01:04:04;;;;;;;23.38;14.77;;;9.10;93.70;;;;;;6273871;22;20015;-75
2020/12/25 01:06:31;;;;;;;28.30;15.35;;;9.10;93.50;;;;;;6274371;22;19996;-74
2020/12/25 01:08:58;;;;;;;24.05;14.75;;;9.10;92.90;;;;;;6277805;22;19996;-74
2020/12/25 01:11:27;;;;;;;27.80;15.57;;;9.20;92.90;;;;;;6275961;22;20333;-73
2020/12/25 01:13:54;;;;;;;21.45;12.20;;;9.10;93.00;;;;;;6276786;22;19999;-73
2020/12/25 01:16:21;;;;;;;23.48;14.35;;;9.00;93.10;;;;;;6274767;22;19999;-74
2020/12/25 01:18:49;;;;;;;22.52;13.50;;;8.90;93.20;;;;;;6273606;22;20011;-73
2020/12/25 01:21:16;;;;;;;26.90;15.80;;;8.90;93.10;;;;;;6276766;22;20015;-71
2020/12/25 01:23:44;;;;;;;22.88;13.20;;;8.90;93.00;;;;;;6276201;22;20003;-73
2020/12/25 01:26:11;;;;;;;23.80;14.68;;;8.90;93.00;;;;;;6275006;22;20003;-73
2020/12/25 01:28:38;;;;;;;25.00;14.20;;;8.90;92.90;;;;;;6273190;22;20004;-74
2020/12/25 01:31:07;;;;;;;26.17;16.08;;;8.80;93.10;;;;;;6274226;22;20000;-74
2020/12/25 01:33:35;;;;;;;26.20;15.80;;;8.90;93.40;;;;;;6276029;22;19999;-74
2020/12/25 01:36:04;;;;;;;26.02;15.75;;;8.80;93.30;;;;;;6276584;22;19999;-73
2020/12/25 01:38:31;;;;;;;24.88;13.88;;;8.90;93.30;;;;;;6278459;22;20010;-73
2020/12/25 01:40:59;;;;;;;25.88;15.20;;;8.90;93.20;;;;;;6275632;22;20000;-74
2020/12/25 01:43:26;;;;;;;33.75;20.25;;;8.80;93.00;;;;;;6276101;22;20014;-74
2020/12/25 01:45:53;;;;;;;25.55;15.63;;;8.90;93.10;;;;;;6276525;22;19995;-73
2020/12/25 01:48:20;;;;;;;26.58;16.10;;;9.00;92.70;;;;;;6276559;22;20003;-74
2020/12/25 01:50:48;;;;;;;25.10;14.50;;;8.90;92.50;;;;;;6275909;22;19995;-75
2020/12/25 01:53:18;;;;;;;22.88;14.38;;;9.00;92.10;;;;;;6274113;22;20022;-75
2020/12/25 01:55:45;;;;;;;30.08;14.70;;;9.00;91.90;;;;;;6273067;22;19999;-72
2020/12/25 01:58:14;;;;;;;23.98;13.13;;;9.00;91.80;;;;;;6274743;22;20004;-74
2020/12/25 02:00:42;;;;;;;24.95;14.18;;;9.10;91.50;;;;;;6274965;22;20008;-73
2020/12/25 02:03:09;;;;;;;27.52;16.88;;;9.20;91.60;;;;;;6275430;22;20037;-73
2020/12/25 02:05:36;;;;;;;25.95;13.50;;;9.20;91.70;;;;;;6275555;22;19992;-75
2020/12/25 02:08:03;;;;;;;21.73;12.73;;;9.20;91.60;;;;;;6274768;22;20003;-74
2020/12/25 02:10:34;;;;;;;24.67;13.20;;;9.10;91.60;;;;;;6273354;22;19996;-73
2020/12/25 02:13:01;;;;;;;25.52;15.70;;;9.10;91.40;;;;;;6273156;22;20000;-73
2020/12/25 02:15:28;;;;;;;25.70;14.68;;;9.20;90.40;;;;;;6275567;22;19992;-73
2020/12/25 02:17:55;;;;;;;25.77;14.35;;;9.20;90.50;;;;;;6275201;22;20007;-72
2020/12/25 02:20:21;;;;;;;29.38;15.82;;;9.10;90.90;;;;;;6274719;22;20279;-74
2020/12/25 02:22:48;;;;;;;24.60;14.68;;;9.10;90.80;;;;;;6276490;22;20270;-72
2020/12/25 02:25:15;;;;;;;25.02;13.38;;;9.10;91.00;;;;;;6275781;22;20007;-73
2020/12/25 02:27:42;;;;;;;27.95;13.68;;;9.00;90.70;;;;;;6276766;22;19992;-74
2020/12/25 02:30:14;;;;;;;22.00;13.18;;;9.00;91.00;;;;;;6248382;22;20724;-72
2020/12/25 02:32:41;;;;;;;24.98;14.95;;;9.00;90.80;;;;;;6276684;22;20023;-72
2020/12/25 02:35:08;;;;;;;22.92;14.30;;;9.20;90.60;;;;;;6275711;22;20007;-73
2020/12/25 02:37:35;;;;;;;26.40;15.45;;;9.20;90.30;;;;;;6275106;22;20003;-74
2020/12/25 02:40:03;;;;;;;28.42;17.60;;;9.20;90.40;;;;;;6277466;22;20417;-76
2020/12/25 02:42:36;;;;;;;29.17;17.08;;;9.20;90.60;;;;;;6275444;22;20010;-74
2020/12/25 02:45:06;;;;;;;24.45;15.32;;;9.10;91.20;;;;;;6275674;22;20019;-74
2020/12/25 02:47:33;;;;;;;27.75;15.35;;;9.00;91.70;;;;;;6278292;22;20428;-75
2020/12/25 02:50:01;;;;;;;29.58;17.52;;;9.00;92.20;;;;;;6277280;22;20007;-73
2020/12/25 02:52:28;;;;;;;27.10;17.58;;;9.10;92.70;;;;;;6279368;22;20421;-73
2020/12/25 02:54:54;;;;;;;28.60;17.95;;;9.20;92.90;;;;;;6275940;22;20329;-75
2020/12/25 02:57:21;;;;;;;30.63;18.13;;;9.00;93.50;;;;;;6275416;22;20077;-74
2020/12/25 02:59:48;;;;;;;35.78;19.85;;;9.10;94.00;;;;;;6247949;22;20413;-73
2020/12/25 03:02:16;;;;;;;37.28;22.23;;;9.10;94.10;;;;;;6276191;22;20000;-75
2020/12/25 03:04:44;;;;;;;37.42;21.73;;;9.00;94.10;;;;;;6275628;22;20004;-74
2020/12/25 03:07:12;;;;;;;24.98;17.20;;;8.80;94.50;;;;;;6276481;22;20010;-75
2020/12/25 03:09:39;;;;;;;26.52;16.75;;;9.10;94.60;;;;;;6279049;22;20286;-74
2020/12/25 03:12:07;;;;;;;28.30;16.02;;;9.20;94.70;;;;;;6276479;22;20003;-75
2020/12/25 03:14:34;;;;;;;26.40;15.60;;;9.20;94.60;;;;;;6274552;22;20007;-73
2020/12/25 03:17:01;;;;;;;13.38;8.88;;;9.20;94.20;;;;;;6279725;22;20014;-75
2020/12/25 03:19:28;;;;;;;20.33;14.90;;;9.50;92.80;;;;;;6278121;22;19992;-75
2020/12/25 03:21:56;;;;;;;22.70;13.45;;;10.00;92.80;;;;;;6274421;22;20018;-74
2020/12/25 03:24:22;;;;;;;15.20;8.35;;;10.20;92.20;;;;;;6277426;22;20011;-74
2020/12/25 03:26:49;;;;;;;8.75;4.63;;;10.40;90.60;;;;;;6275723;22;20006;-74
2020/12/25 03:29:16;;;;;;;13.57;7.40;;;10.80;88.90;;;;;;6278448;22;20599;-75
2020/12/25 03:31:43;;;;;;;7.30;4.10;;;11.10;88.60;;;;;;6277584;22;19999;-75
2020/12/25 03:34:10;;;;;;;6.20;4.15;;;11.20;86.50;;;;;;6277271;22;20019;-75
2020/12/25 03:36:37;;;;;;;5.32;3.05;;;11.40;84.80;;;;;;6274925;22;20007;-72
2020/12/25 03:39:04;;;;;;;10.65;4.90;;;11.60;85.20;;;;;;6276315;22;20018;-75
2020/12/25 03:41:31;;;;;;;9.52;5.50;;;11.60;85.70;;;;;;6278165;22;19995;-74
2020/12/25 03:43:58;;;;;;;11.23;5.90;;;11.60;87.10;;;;;;6277029;22;20012;-74
2020/12/25 03:46:25;;;;;;;7.43;3.47;;;11.60;85.30;;;;;;6275939;22;20004;-74
2020/12/25 03:48:52;;;;;;;6.13;3.40;;;11.90;83.60;;;;;;6276968;22;20016;-73
2020/12/25 03:51:19;;;;;;;8.18;2.67;;;12.00;82.60;;;;;;6276370;22;20048;-75
2020/12/25 03:53:45;;;;;;;5.90;2.72;;;12.00;82.10;;;;;;6274719;22;20011;-74
2020/12/25 03:56:16;;;;;;;8.80;3.40;;;12.10;80.60;;;;;;6278030;22;19992;-74
2020/12/25 03:58:43;;;;;;;8.88;2.70;;;12.30;80.90;;;;;;6277412;22;19991;-75
2020/12/25 04:01:10;;;;;;;7.05;3.17;;;12.40;80.40;;;;;;6274772;22;20011;-74
2020/12/25 04:03:36;;;;;;;7.97;3.97;;;12.40;80.20;;;;;;6275941;22;20030;-75
2020/12/25 04:06:03;;;;;;;4.60;2.75;;;12.50;79.80;;;;;;6275135;22;19999;-76
2020/12/25 04:08:30;;;;;;;4.78;2.60;;;12.50;79.60;;;;;;6278152;22;19995;-74
2020/12/25 04:10:57;;;;;;;8.07;2.80;;;12.60;80.40;;;;;;6274796;22;20000;-75
2020/12/25 04:13:24;;;;;;;3.42;2.40;;;12.70;80.40;;;;;;6276860;22;20003;-74
2020/12/25 04:15:51;;;;;;;3.33;2.15;;;12.70;79.80;;;;;;6276245;22;20000;-75
2020/12/25 04:18:18;;;;;;;4.50;1.60;;;12.80;79.60;;;;;;6274423;22;19999;-73
2020/12/25 04:20:45;;;;;;;2.97;2.13;;;12.80;78.20;;;;;;6274583;22;20020;-74
2020/12/25 04:23:12;;;;;;;3.45;1.88;;;12.90;79.00;;;;;;6277078;22;20008;-74
2020/12/25 04:25:42;;;;;;;4.43;2.10;;;13.00;80.40;;;;;;6274610;22;20007;-75
2020/12/25 04:28:08;;;;;;;4.78;2.00;;;13.10;77.80;;;;;;6275853;22;20003;-74
2020/12/25 04:30:35;;;;;;;9.07;2.55;;;13.10;77.00;;;;;;6275636;22;19996;-75
2020/12/25 04:33:02;;;;;;;3.50;2.00;;;13.00;77.80;;;;;;6278564;22;19995;-75
2020/12/25 04:35:29;;;;;;;4.63;2.38;;;13.00;77.50;;;;;;6279769;22;19995;-75
2020/12/25 04:37:56;;;;;;;3.20;1.83;;;13.00;78.00;;;;;;6282946;22;20309;-74
2020/12/25 04:40:23;;;;;;;4.50;2.40;;;13.00;78.30;;;;;;6278483;22;20015;-75
2020/12/25 04:42:51;;;;;;;4.53;2.38;;;13.00;78.30;;;;;;6274629;22;20003;-76
2020/12/25 04:45:18;;;;;;;4.18;2.00;;;13.00;78.40;;;;;;6274786;22;20008;-75
2020/12/25 04:47:49;;;;;;;5.40;2.20;;;12.90;78.60;;;;;;6276059;22;20007;-75
2020/12/25 04:50:15;;;;;;;3.33;1.98;;;13.00;77.30;;;;;;6277478;22;20321;-75
2020/12/25 04:52:46;;;;;;;5.07;1.70;;;13.00;78.00;;;;;;6277318;22;20000;-75
2020/12/25 04:55:13;;;;;;;1.95;1.30;;;13.00;78.70;;;;;;6276690;22;20007;-76
2020/12/25 04:57:40;;;;;;;4.53;1.40;;;13.00;79.50;;;;;;6274130;22;20006;-75
2020/12/25 05:00:22;;;;;;;5.03;2.55;;;13.00;80.40;;;;;;6276838;22;19996;-75
2020/12/25 05:02:51;;;;;;;3.78;2.10;;;13.00;80.90;;;;;;6275959;22;20003;-75
2020/12/25 05:05:25;;;;;;;3.45;1.65;;;13.00;81.00;;;;;;6275869;22;20008;-74
2020/12/25 05:07:53;;;;;;;4.03;2.95;;;13.00;81.00;;;;;;6277223;22;19992;-74
2020/12/25 05:10:20;;;;;;;4.25;2.17;;;13.00;81.80;;;;;;6276793;22;20003;-74
2020/12/25 05:12:47;;;;;;;8.43;2.50;;;12.90;81.50;;;;;;6276084;22;20507;-74
2020/12/25 05:15:14;;;;;;;5.55;2.28;;;12.90;80.10;;;;;;6274035;22;20000;-74
2020/12/25 05:17:42;;;;;;;4.47;3.13;;;12.80;81.70;;;;;;6274955;22;20003;-74
2020/12/25 05:20:10;;;;;;;5.75;4.43;;;12.70;82.30;;;;;;6276803;22;20000;-75
2020/12/25 05:22:38;;;;;;;13.00;8.13;;;12.50;81.30;;;;;;6274333;22;20011;-74
2020/12/25 05:25:07;;;;;;;15.07;8.98;;;12.20;81.30;;;;;;6274843;22;20011;-75
2020/12/25 05:27:34;;;;;;;13.73;7.97;;;12.00;81.70;;;;;;6276003;22;19991;-75
2020/12/25 05:30:04;;;;;;;15.23;10.13;;;11.90;82.90;;;;;;6273146;22;20010;-74
2020/12/25 05:32:33;;;;;;;16.63;10.65;;;11.80;83.40;;;;;;6276266;22;19999;-75
2020/12/25 05:35:00;;;;;;;18.30;10.57;;;11.80;82.50;;;;;;6276308;22;19999;-75
2020/12/25 05:37:34;;;;;;;21.48;11.65;;;11.70;83.40;;;;;;6274907;22;20006;-74
2020/12/25 05:40:05;;;;;;;13.38;8.80;;;11.50;83.50;;;;;;6247511;22;20328;-74
2020/12/25 05:42:48;;;;;;;7.90;6.22;;;11.40;83.90;;;;;;6276720;22;19992;-75
2020/12/25 05:45:20;;;;;;;6.65;4.28;;;11.50;84.90;;;;;;6274825;22;20063;-75
2020/12/25 05:48:01;;;;;;;6.93;3.60;;;11.50;84.10;;;;;;6276709;22;19992;-73
2020/12/25 05:50:28;;;;;;;5.22;2.67;;;11.70;83.50;;;;;;6275948;22;20336;-73
2020/12/25 05:52:56;;;;;;;5.78;1.98;;;11.80;83.00;;;;;;6273526;22;20000;-73
2020/12/25 05:55:24;;;;;;;4.15;1.73;;;12.00;83.50;;;;;;6249002;22;20002;-73
2020/12/25 05:57:52;;;;;;;2.97;1.38;;;12.00;83.90;;;;;;6278198;22;19999;-74
2020/12/25 06:00:20;;;;;;;5.82;1.35;;;12.10;84.60;;;;;;6250031;22;20000;-73
2020/12/25 06:02:49;;;;;;;2.28;1.00;;;12.10;85.20;;;;;;6275703;22;20003;-73
2020/12/25 06:05:17;;;;;;;2.80;1.40;;;12.10;86.10;;;;;;6279174;22;20425;-79
2020/12/25 06:07:57;;;;;;;2.67;1.25;;;12.30;86.20;;;;;;6277366;22;19996;-74
2020/12/25 06:10:30;;;;;;;4.68;1.50;;;12.30;86.20;;;;;;6248917;22;20000;-74
2020/12/25 06:12:57;;;;;;;1.85;0.80;;;12.40;86.50;;;;;;6251243;22;20000;-73
2020/12/25 06:15:30;;;;;;;2.50;0.93;;;12.50;86.70;;;;;;6251612;22;20000;-74
2020/12/25 06:18:33;;;;;;;2.58;1.33;;;12.60;87.50;;;;;;6281065;22;20007;-74
2020/12/25 06:21:23;;;;;;;5.55;3.42;;;12.60;87.50;;;;;;6279831;22;20008;-73
2020/12/25 06:23:51;;;;;;;3.08;1.73;;;12.60;87.60;;;;;;6277816;22;20000;-73
2020/12/25 06:26:19;;;;;;;7.47;2.17;;;12.70;87.60;;;;;;6278792;22;20024;-73
2020/12/25 06:28:48;;;;;;;5.65;2.65;;;12.70;86.70;;;;;;6276484;22;19999;-78
2020/12/25 06:31:42;;;;;;;5.13;2.30;;;12.70;86.30;;;;;;6250284;22;20004;-76
2020/12/25 06:34:10;;;;;;;3.80;1.58;;;12.70;86.20;;;;;;6277951;22;20392;-76
2020/12/25 06:36:45;;;;;;;4.82;1.55;;;12.70;85.40;;;;;;6276750;22;20014;-75
2020/12/25 06:39:14;;;;;;;4.75;2.60;;;12.60;84.70;;;;;;6279682;22;20302;-76
2020/12/25 06:41:41;;;;;;;11.13;5.10;;;12.50;84.60;;;;;;6280373;22;20003;-74
2020/12/25 06:44:09;;;;;;;10.40;5.13;;;12.40;83.90;;;;;;6281030;22;20425;-77
2020/12/25 06:46:36;;;;;;;10.60;6.90;;;12.10;85.10;;;;;;6280666;22;20384;-77
2020/12/25 06:49:06;;;;;;;18.98;9.10;;;11.90;85.00;;;;;;6279828;22;20046;-75
2020/12/25 06:51:43;;;;;;;19.75;12.98;;;11.70;85.70;;;;;;6278947;22;20460;-76
2020/12/25 06:54:20;;;;;;;19.98;12.25;;;11.40;85.40;;;;;;6280151;22;20313;-74
2020/12/25 06:56:51;;;;;;;20.85;13.70;;;11.30;86.10;;;;;;6279469;22;19996;-76
2020/12/25 06:59:22;;;;;;;20.63;13.27;;;11.20;86.30;;;;;;6278545;22;19996;-75
2020/12/25 07:01:56;;;;;;;20.10;13.55;;;11.10;87.00;;;;;;6279573;22;20003;-76
2020/12/25 07:04:27;;;;;;;21.17;14.43;;;11.10;87.80;;;;;;6278772;22;20361;-75
2020/12/25 07:07:09;;;;;;;20.67;12.32;;;11.00;88.20;;;;;;6278426;22;20014;-75
2020/12/25 07:09:44;;;;;;;26.85;15.13;;;10.90;88.70;;;;;;6280883;22;20003;-73
2020/12/25 07:12:18;;;;;;;25.55;14.05;;;10.70;90.20;;;;;;6250562;22;19999;-74
2020/12/25 07:14:45;;;;;;;23.35;12.13;;;10.50;91.00;;;;;;6249800;22;19996;-75
2020/12/25 07:17:12;;;;;;;22.48;12.18;;;10.50;91.00;;;;;;6276219;22;20003;-76
2020/12/25 07:19:40;;;;;;;19.02;11.50;;;10.50;90.60;;;;;;6278763;22;19992;-75
2020/12/25 07:22:07;;;;;;;19.48;10.48;;;10.70;89.30;;;;;;6277094;22;20011;-75
2020/12/25 07:24:41;;;;;;;19.00;11.93;;;10.80;89.70;;;;;;6276197;22;20004;-75
2020/12/25 07:27:09;;;;;;;21.17;12.35;;;10.80;89.20;;;;;;6277666;22;20055;-75
2020/12/25 07:29:37;;;;;;;24.30;12.55;;;10.90;88.50;;;;;;6277218;22;20302;-75
2020/12/25 07:32:05;;;;;;;14.60;9.13;;;11.00;87.10;;;;;;6277366;22;19992;-76
2020/12/25 07:34:32;;;;;;;13.82;6.53;;;11.00;85.20;;;;;;6278017;22;20362;-75
2020/12/25 07:36:59;;;;;;;10.73;5.82;;;11.20;82.40;;;;;;6279254;22;19999;-75
2020/12/25 07:39:29;;;;;;;7.05;4.50;;;11.40;80.60;;;;;;6278245;22;19999;-75
2020/12/25 07:41:57;;;;;;;8.55;4.05;;;11.50;79.00;;;;;;6276797;22;20309;-75
2020/12/25 07:44:24;;;;;;;8.68;3.80;;;11.60;78.00;;;;;;6276688;22;20417;-75
2020/12/25 07:46:52;;;;;;;7.18;3.55;;;11.70;77.20;;;;;;6278156;22;20000;-76
2020/12/25 07:49:19;;;;;;;7.78;3.83;;;11.90;74.90;;;;;;6277875;22;20050;-75
2020/12/25 07:51:50;;;;;;;9.98;4.22;;;11.90;74.40;;;;;;6277638;22;20302;-76
2020/12/25 07:54:17;;;;;;;9.30;3.60;;;11.90;72.30;;;;;;6279558;22;20409;-75
2020/12/25 07:56:44;;;;;;;5.07;3.15;;;12.10;67.80;;;;;;6277258;22;19999;-75
2020/12/25 07:59:11;;;;;;;5.82;3.17;;;12.10;68.00;;;;;;6247955;22;20429;-76
2020/12/25 08:01:38;;;;;;;6.72;2.78;;;12.10;66.20;;;;;;6276219;22;20007;-75
2020/12/25 08:04:05;;;;;;;6.68;3.13;;;12.10;64.70;;;;;;6277476;22;20008;-74
2020/12/25 08:06:35;;;;;;;5.57;3.15;;;12.20;64.80;;;;;;6276556;22;20329;-75
2020/12/25 08:09:10;;;;;;;5.05;3.42;;;12.10;64.90;;;;;;6276280;22;19992;-75
2020/12/25 08:11:40;;;;;;;6.43;3.38;;;12.00;66.00;;;;;;6277734;22;20004;-74
2020/12/25 08:14:09;;;;;;;7.03;3.78;;;12.00;67.00;;;;;;6278529;22;20006;-75
2020/12/25 08:16:44;;;;;;;4.82;3.20;;;11.90;67.30;;;;;;6277106;22;20004;-74
2020/12/25 08:19:11;;;;;;;8.55;4.88;;;11.90;68.60;;;;;;6277944;22;20003;-73
2020/12/25 08:21:40;;;;;;;7.00;3.05;;;11.80;67.30;;;;;;6277051;22;20007;-74
2020/12/25 08:24:07;;;;;;;5.65;2.53;;;11.90;65.20;;;;;;6276848;22;20007;-74
2020/12/25 08:26:39;;;;;;;4.85;2.90;;;11.90;64.70;;;;;;6277107;22;20055;-74
2020/12/25 08:29:07;;;;;;;13.18;5.30;;;11.80;64.30;;;;;;6274575;22;20015;-72
2020/12/25 08:31:37;;;;;;;5.75;2.90;;;11.80;63.00;;;;;;6277950;22;19999;-73
2020/12/25 08:34:05;;;;;;;11.65;3.50;;;11.80;60.90;;;;;;6277985;22;19992;-74
2020/12/25 08:36:32;;;;;;;5.45;2.90;;;11.90;61.70;;;;;;6277253;22;20003;-73
2020/12/25 08:38:59;;;;;;;3.83;2.38;;;11.90;59.90;;;;;;6275668;22;19992;-75
2020/12/25 08:41:29;;;;;;;6.00;4.15;;;11.90;58.70;;;;;;6275492;22;20010;-74
2020/12/25 08:44:11;;;;;;;16.63;4.85;;;11.90;59.30;;;;;;6275302;22;20886;-74
2020/12/25 08:46:39;;;;;;;11.57;2.92;;;11.90;58.60;;;;;;6275984;22;20428;-74
2020/12/25 08:49:09;;;;;;;5.15;2.85;;;11.90;59.20;;;;;;6247847;22;20000;-75
2020/12/25 08:51:38;;;;;;;5.97;3.35;;;11.90;58.00;;;;;;6277305;22;19996;-75
2020/12/25 08:54:05;;;;;;;4.93;2.75;;;11.90;57.80;;;;;;6249502;22;19996;-75
2020/12/25 08:56:35;;;;;;;6.03;2.30;;;11.80;56.20;;;;;;6277286;22;20000;-75
2020/12/25 08:59:07;;;;;;;9.85;2.33;;;11.80;56.60;;;;;;6275737;22;19996;-76
2020/12/25 09:01:38;;;;;;;5.03;2.55;;;11.90;56.70;;;;;;6276918;22;20390;-75
2020/12/25 09:04:12;;;;;;;3.58;1.92;;;11.90;55.50;;;;;;6274096;22;20007;-75
2020/12/25 09:06:39;;;;;;;7.15;3.47;;;11.90;55.90;;;;;;6248929;22;20432;-76
2020/12/25 09:09:06;;;;;;;5.10;2.53;;;11.90;56.20;;;;;;6278908;22;20448;-77
2020/12/25 09:11:33;;;;;;;5.40;3.22;;;11.90;55.80;;;;;;6274329;22;20004;-75
2020/12/25 09:13:59;;;;;;;4.93;2.45;;;11.80;56.70;;;;;;6279051;22;19995;-77
2020/12/25 09:16:26;;;;;;;5.90;2.38;;;11.90;55.90;;;;;;6278096;22;20010;-76
2020/12/25 09:18:53;;;;;;;5.65;2.45;;;11.90;56.00;;;;;;6246280;22;20417;-76
2020/12/25 09:21:20;;;;;;;7.03;2.30;;;11.90;56.70;;;;;;6277499;22;20337;-75
2020/12/25 09:23:47;;;;;;;3.20;1.77;;;11.90;56.90;;;;;;6276838;22;20018;-75
2020/12/25 09:26:15;;;;;;;3.55;2.10;;;11.90;57.20;;;;;;6276593;22;20004;-76
2020/12/25 09:28:42;;;;;;;5.50;2.03;;;11.90;57.90;;;;;;6275964;22;20290;-75
2020/12/25 09:31:12;;;;;;;7.47;1.95;;;11.80;57.30;;;;;;6275131;22;20003;-74
2020/12/25 09:33:39;;;;;;;3.15;1.67;;;11.70;57.60;;;;;;6276473;22;20363;-74
2020/12/25 09:36:07;;;;;;;8.05;2.88;;;11.60;58.40;;;;;;6276193;22;20007;-76
2020/12/25 09:38:37;;;;;;;5.63;2.33;;;11.60;58.20;;;;;;6275919;22;19991;-74
2020/12/25 09:41:04;;;;;;;4.22;2.50;;;11.70;57.00;;;;;;6276354;22;20000;-76
2020/12/25 09:43:32;;;;;;;6.63;2.60;;;11.60;57.90;;;;;;6277397;22;20417;-73
2020/12/25 09:45:59;;;;;;;7.07;3.33;;;11.50;58.50;;;;;;6277589;22;20015;-73
2020/12/25 09:48:26;;;;;;;7.20;2.40;;;11.60;57.70;;;;;;6276538;22;19996;-73
2020/12/25 09:50:53;;;;;;;10.18;4.55;;;11.60;57.70;;;;;;6275647;22;20007;-73
2020/12/25 09:53:20;;;;;;;6.05;2.15;;;11.60;57.40;;;;;;6274592;22;19998;-73
2020/12/25 09:55:48;;;;;;;5.82;2.35;;;11.60;57.80;;;;;;6276925;22;20003;-73
2020/12/25 09:58:15;;;;;;;5.50;1.90;;;11.60;58.00;;;;;;6276281;22;20003;-73
2020/12/25 10:00:42;;;;;;;4.13;1.92;;;11.50;58.60;;;;;;6275598;22;19996;-73
2020/12/25 10:03:09;;;;;;;6.30;2.35;;;11.40;58.60;;;;;;6275034;22;20406;-72
2020/12/25 10:05:36;;;;;;;2.90;1.83;;;11.40;59.20;;;;;;6274472;22;20059;-71
2020/12/25 10:08:03;;;;;;;6.05;2.30;;;11.30;59.50;;;;;;6276337;22;19999;-72
2020/12/25 10:10:30;;;;;;;4.50;2.50;;;11.20;59.20;;;;;;6276102;22;20004;-72
2020/12/25 10:12:57;;;;;;;5.00;2.00;;;11.10;59.30;;;;;;6276381;22;19992;-72
2020/12/25 10:15:24;;;;;;;4.45;1.70;;;11.10;60.20;;;;;;6276335;22;20003;-74
2020/12/25 10:17:51;;;;;;;3.65;1.83;;;11.00;59.60;;;;;;6275425;22;19992;-73
2020/12/25 10:20:18;;;;;;;2.65;1.63;;;11.00;59.50;;;;;;6276045;22;19999;-73
2020/12/25 10:22:45;;;;;;;5.88;1.88;;;11.00;60.50;;;;;;6276562;22;20011;-74
2020/12/25 10:25:11;;;;;;;4.32;1.65;;;10.90;60.30;;;;;;6246388;22;20016;-75
2020/12/25 10:27:38;;;;;;;2.78;1.80;;;10.90;59.10;;;;;;6276405;22;20290;-74
2020/12/25 10:30:05;;;;;;;5.50;1.35;;;10.90;58.20;;;;;;6246706;22;20000;-75
2020/12/25 10:32:32;;;;;;;5.35;1.77;;;11.00;58.10;;;;;;6275856;22;20098;-77
2020/12/25 10:34:59;;;;;;;4.15;1.67;;;11.00;57.50;;;;;;6276996;22;20000;-76
2020/12/25 10:37:26;;;;;;;3.08;1.55;;;11.00;56.70;;;;;;6276355;22;20012;-76
2020/12/25 10:39:53;;;;;;;8.45;2.00;;;11.30;56.50;;;;;;6277248;22;19996;-75
2020/12/25 10:42:20;;;;;;;5.28;1.58;;;11.30;55.70;;;;;;6277285;22;19996;-75
2020/12/25 10:44:47;;;;;;;6.63;1.58;;;11.30;56.80;;;;;;6276484;22;20333;-74
2020/12/25 10:47:13;;;;;;;3.55;1.30;;;11.40;55.10;;;;;;6274941;22;19992;-74
2020/12/25 10:49:40;;;;;;;7.88;1.70;;;11.40;55.80;;;;;;6275208;22;19996;-75
2020/12/25 10:52:07;;;;;;;6.20;1.70;;;11.50;55.60;;;;;;6275654;22;19992;-75
2020/12/25 10:54:35;;;;;;;3.42;1.52;;;11.60;54.90;;;;;;6276000;22;20323;-76
2020/12/25 10:57:02;;;;;;;7.32;1.95;;;11.50;55.70;;;;;;6278165;22;20320;-75
2020/12/25 10:59:29;;;;;;;3.45;1.67;;;11.50;55.70;;;;;;6278134;22;20018;-75
2020/12/25 11:01:56;;;;;;;4.28;2.08;;;11.40;56.30;;;;;;6277561;22;19995;-74
2020/12/25 11:04:23;;;;;;;3.03;1.80;;;11.30;55.70;;;;;;6276817;22;20000;-75
2020/12/25 11:06:50;;;;;;;4.75;2.22;;;11.30;56.00;;;;;;6276495;22;20000;-74
2020/12/25 11:09:17;;;;;;;7.10;1.83;;;11.30;55.70;;;;;;6278258;22;19995;-75
2020/12/25 11:11:44;;;;;;;3.15;1.20;;;11.30;55.50;;;;;;6277862;22;20007;-74
2020/12/25 11:14:11;;;;;;;4.85;1.50;;;11.40;54.10;;;;;;6277807;22;20417;-74
2020/12/25 11:16:39;;;;;;;4.38;1.50;;;11.50;54.20;;;;;;6276939;22;20003;-72
2020/12/25 11:19:10;;;;;;;3.92;1.40;;;11.50;55.20;;;;;;6276548;22;20321;-75
2020/12/25 11:21:37;;;;;;;3.92;1.20;;;11.50;54.50;;;;;;6278220;22;20011;-73
2020/12/25 11:24:05;;;;;;;3.28;1.40;;;11.50;54.40;;;;;;6277648;22;19991;-73
2020/12/25 11:26:34;;;;;;;2.40;1.50;;;11.50;55.00;;;;;;6276755;22;20004;-73
2020/12/25 11:29:03;;;;;;;4.25;1.40;;;11.50;55.10;;;;;;6275433;22;19999;-73
2020/12/25 11:31:32;;;;;;;4.70;1.77;;;11.50;55.00;;;;;;6279642;22;20003;-73
2020/12/25 11:33:59;;;;;;;4.80;1.40;;;11.50;54.70;;;;;;6277867;22;19999;-76
2020/12/25 11:36:28;;;;;;;4.22;1.70;;;11.40;54.60;;;;;;6278444;22;20055;-73
2020/12/25 11:38:55;;;;;;;3.33;1.67;;;11.60;54.80;;;;;;6278682;22;20051;-74
2020/12/25 11:41:24;;;;;;;3.38;2.08;;;11.60;55.40;;;;;;6277800;22;20007;-73
2020/12/25 11:43:52;;;;;;;3.80;1.48;;;11.50;55.50;;;;;;6277354;22;20421;-74
2020/12/25 11:46:20;;;;;;;4.70;1.48;;;11.50;54.60;;;;;;6277291;22;20008;-73
2020/12/25 11:48:47;;;;;;;6.22;1.90;;;11.50;54.80;;;;;;6276976;22;20321;-73
2020/12/25 11:51:19;;;;;;;6.43;1.13;;;11.60;54.70;;;;;;6247820;22;19999;-73
2020/12/25 11:53:46;;;;;;;4.05;1.40;;;11.60;54.80;;;;;;6277948;22;19996;-73
2020/12/25 11:56:18;;;;;;;5.35;1.55;;;11.70;54.70;;;;;;6277530;22;20295;-74
2020/12/25 11:58:45;;;;;;;5.50;1.58;;;11.70;55.00;;;;;;6277148;22;20410;-74
2020/12/25 12:01:12;;;;;;;5.30;1.40;;;11.70;54.70;;;;;;6278322;22;20004;-74
2020/12/25 12:03:38;;;;;;;2.72;1.23;;;11.70;54.70;;;;;;6278688;22;20421;-74
2020/12/25 12:06:05;;;;;;;2.90;1.15;;;11.70;55.20;;;;;;6276430;22;20689;-73
2020/12/25 12:08:32;;;;;;;5.57;1.10;;;11.80;55.20;;;;;;6275767;22;19992;-74
2020/12/25 12:11:00;;;;;;;3.00;1.30;;;11.80;54.50;;;;;;6277564;22;20298;-73
2020/12/25 12:13:27;;;;;;;2.90;1.50;;;11.80;55.70;;;;;;6274495;22;20007;-75
2020/12/25 12:15:54;;;;;;;4.28;1.40;;;11.80;54.30;;;;;;6276509;22;19996;-75
2020/12/25 12:18:21;;;;;;;4.05;1.60;;;11.80;54.20;;;;;;6247038;22;20007;-74
2020/12/25 12:20:48;;;;;;;3.47;1.25;;;11.80;54.60;;;;;;6275762;22;20015;-74
2020/12/25 12:23:15;;;;;;;8.40;1.58;;;11.80;54.30;;;;;;6275350;22;19999;-74
2020/12/25 12:25:42;;;;;;;2.60;1.40;;;11.80;55.10;;;;;;6277794;22;20007;-73
2020/12/25 12:28:09;;;;;;;2.92;1.38;;;11.80;53.80;;;;;;6247672;22;19996;-74
2020/12/25 12:30:36;;;;;;;5.47;1.50;;;11.80;54.10;;;;;;6276329;22;20000;-73
2020/12/25 12:33:03;;;;;;;5.10;1.92;;;11.70;55.00;;;;;;6275663;22;20002;-73
2020/12/25 12:35:30;;;;;;;2.42;1.17;;;11.70;56.00;;;;;;6275754;22;20353;-73
2020/12/25 12:37:57;;;;;;;2.75;1.15;;;11.60;56.90;;;;;;6277834;22;19999;-74
2020/12/25 12:40:24;;;;;;;3.80;1.52;;;11.40;57.20;;;;;;6277058;22;20021;-73
2020/12/25 12:42:50;;;;;;;3.80;1.70;;;11.20;57.30;;;;;;6276731;22;19996;-75
2020/12/25 12:45:17;;;;;;;2.65;1.40;;;11.10;57.80;;;;;;6277063;22;20007;-75
2020/12/25 12:47:44;;;;;;;1.92;1.40;;;11.00;58.80;;;;;;6275581;22;20000;-75
2020/12/25 12:50:11;;;;;;;2.90;1.30;;;11.10;56.80;;;;;;6276212;22;19992;-75